Latest Coastal Weather Observations for Eucla

IDS60701

Issued at 1:31 pm CST Tuesday 28 June 2022 (issued every 10 minutes, with the page automatically refreshed every 10 minutes)

About coastal observations | Map of coastal stations | Coastal observations for SA | Marine services | Other Formats
Station Details ID: 011003 Name: EUCLA Lat: -31.68 Lon: 128.90 Height: 93.1 m
Data from the previous 72 hours. | See also: Recent months at Eucla
Date/Time
CST
Wind Sea
Height
m
Swell Vis
km
Cloud Weather Temp
°C
Press
MSL
hPa
Rain since
9am
mm
Dir  Spd
kts
Gust
kts
Height
m
Period
s
Dir
28/01:30pm SSW 11 18 - - - - - - - 18.0 1024.3 0.0
28/01:00pm SW 9 14 - - - - - - - 20.1 1024.4 0.0
28/12:30pm WNW 7 9 - - - - - - - 19.7 1024.8 0.0
28/12:00pm W 7 11 - - - - - - - 19.0 1025.3 0.0
28/11:30am WNW 8 11 - - - - - - - 18.5 1025.6 0.0
28/11:00am NW 8 13 - - - - - - - 16.9 1026.0 0.0
28/10:30am NW 10 16 - - - - - - - 14.8 1026.3 0.0
28/10:00am NW 12 18 - - - - - - - 13.5 1026.4 0.0
28/09:30am NNW 11 15 - - - - - - - 12.8 1026.0 0.0
28/09:00am NNW 10 14 - - - - - - - 10.5 1026.0 0.0
28/08:30am NNW 10 14 - - - - - - - 8.2 1025.9 0.0
28/08:00am NNW 11 15 - - - - - - - 7.3 1025.9 0.0
28/07:30am NNW 10 14 - - - - - - - 7.4 1025.8 0.0
28/07:00am NNW 10 13 - - - - - - - 7.8 1025.7 0.0
28/06:30am N 10 14 - - - - - - - 7.5 1025.4 0.0
28/06:00am NNW 12 16 - - - - - - - 7.4 1025.4 0.0
28/05:30am N 11 15 - - - - - - - 6.8 1025.1 0.0
28/05:00am N 10 15 - - - - - - - 6.7 1025.4 0.0
28/04:30am N 11 14 - - - - - - - 6.7 1025.5 0.0
28/04:00am N 10 13 - - - - - - - 7.3 1025.6 0.0
28/03:30am N 10 12 - - - - - - - 8.1 1025.8 0.0
28/03:00am N 9 11 - - - - - - - 8.8 1026.2 0.0
28/02:30am N 9 11 - - - - - - - 9.1 1026.1 0.0
28/02:00am N 9 12 - - - - - - - 9.4 1026.4 0.0
28/01:30am N 11 15 - - - - - - - 8.6 1026.4 0.0
28/01:00am N 8 10 - - - - - - - 7.8 1027.0 0.0
28/12:30am N 8 10 - - - - - - - 8.2 1027.1 0.0
28/12:00am N 7 8 - - - - - - - 8.2 1027.3 0.0
 
Date/Time
CST
Wind Sea
Height
m
Swell Vis
km
Cloud Weather Temp
°C
Press
MSL
hPa
Rain since
9am
mm
Dir  Spd
kts
Gust
kts
Height
m
Period
s
Dir
27/11:30pm N 7 8 - - - - - - - 8.7 1027.5 0.0
27/11:00pm NNE 7 8 - - - - - - - 8.6 1027.5 0.0
27/10:30pm NNE 7 8 - - - - - - - 9.3 1027.9 0.0
27/10:00pm NNE 6 7 - - - - - - - 9.0 1028.2 0.0
27/09:30pm NNE 6 7 - - - - - - - 9.5 1027.9 0.0
27/09:00pm NNE 7 8 - - - - - - - 10.7 1027.9 0.0
27/08:30pm NNE 6 7 - - - - - - - 11.6 1027.9 0.0
27/08:00pm N 6 7 - - - - - - - 12.5 1027.8 0.0
27/07:30pm N 6 7 - - - - - - - 12.8 1027.7 0.0
27/07:00pm N 6 7 - - - - - - - 13.2 1027.6 0.0
27/06:30pm N 6 6 - - - - - - - 14.6 1027.6 0.0
27/06:00pm N 6 8 - - - - - - - 16.9 1027.5 0.0
27/05:30pm N 8 11 - - - - - - - 18.4 1027.5 0.0
27/05:00pm N 8 12 - - - - - - - 19.4 1027.5 0.0
27/04:30pm N 9 14 - - - - - - - 20.0 1027.7 0.0
27/04:00pm N 8 12 - - - - - - - 20.2 1028.0 0.0
27/03:30pm N 7 10 - - - - - - - 20.6 1028.4 0.0
27/03:00pm N 8 12 - - - - - - - 20.1 1028.8 0.0
27/02:30pm NNW 9 15 - - - - - - - 20.2 1029.4 0.0
27/02:00pm NNW 10 16 - - - - - - - 20.3 1029.9 0.0
27/01:30pm N 11 15 - - - - - - - 19.3 1030.5 0.0
27/01:00pm N 11 18 - - - - - - - 19.1 1030.9 0.0
27/12:30pm N 11 17 - - - - - - - 18.6 1031.6 0.0
27/12:00pm N 9 15 - - - - - - - 17.8 1032.1 0.0
27/11:30am N 10 16 - - - - - - - 17.4 1032.4 0.0
27/11:00am N 12 17 - - - - - - - 15.8 1032.8 0.0
27/10:30am NNE 10 14 - - - - - - - 14.3 1032.8 0.2
27/10:00am NNE 9 12 - - - - - - - 12.2 1032.9 0.2
27/09:30am NNE 9 14 - - - - - - - 10.3 1032.9 0.2
27/09:00am NNE 9 13 - - - - - - - 8.8 1032.9 0.2
27/08:30am N 9 12 - - - - - - - 7.3 1032.7 0.2
27/08:00am N 9 12 - - - - - - - 6.4 1032.7 0.2
27/07:30am N 9 11 - - - - - - - 6.3 1032.5 0.0
27/07:00am N 8 10 - - - - - - - 6.5 1032.4 0.0
27/06:30am N 8 10 - - - - - - - 6.7 1032.3 0.0
27/06:00am NNE 9 12 - - - - - - - 7.0 1032.0 0.0
27/05:30am NNE 8 10 - - - - - - - 7.0 1031.9 0.0
27/05:00am N 8 10 - - - - - - - 6.7 1032.0 0.0
27/04:30am N 8 10 - - - - - - - 7.0 1032.1 0.0
27/04:00am NNE 8 10 - - - - - - - 7.5 1032.3 0.0
27/03:30am NNE 8 9 - - - - - - - 7.6 1032.4 0.0
27/03:00am NNE 8 10 - - - - - - - 8.3 1032.6 0.0
27/02:30am NNE 7 10 - - - - - - - 9.0 1032.6 0.0
27/02:00am NNE 7 10 - - - - - - - 8.9 1032.5 0.0
27/01:30am NNE 7 9 - - - - - - - 8.8 1032.5 0.0
27/01:00am NNE 7 9 - - - - - - - 9.0 1032.6 0.0
27/12:30am NE 7 8 - - - - - - - 9.3 1032.6 0.0
27/12:00am NE 7 8 - - - - - - - 9.6 1032.8 0.0
 
Date/Time
CST
Wind Sea
Height
m
Swell Vis
km
Cloud Weather Temp
°C
Press
MSL
hPa
Rain since
9am
mm
Dir  Spd
kts
Gust
kts
Height
m
Period
s
Dir
26/11:30pm NE 7 9 - - - - - - - 9.9 1032.7 0.0
26/11:00pm NE 6 8 - - - - - - - 9.9 1032.8 0.0
26/10:30pm NE 6 7 - - - - - - - 10.1 1032.8 0.0
26/10:00pm NE 6 8 - - - - - - - 10.8 1032.7 0.0
26/09:30pm ENE 6 6 - - - - - - - 10.8 1032.7 0.0
26/09:00pm ENE 5 6 - - - - - - - 11.5 1032.6 0.0
26/08:30pm E 6 7 - - - - - - - 12.6 1032.5 0.0
26/08:00pm E 6 8 - - - - - - - 13.3 1032.3 0.0
26/07:30pm E 6 9 - - - - - - - 13.6 1032.1 0.0
26/07:00pm E 6 8 - - - - - - - 13.6 1031.9 0.0
26/06:30pm ESE 6 7 - - - - - - - 13.7 1031.6 0.0
26/06:00pm ESE 6 9 - - - - - - - 14.1 1031.2 0.0
26/05:30pm ESE 6 10 - - - - - - - 15.0 1031.0 0.0
26/05:00pm SE 7 11 - - - - - - - 15.7 1030.8 0.0
26/04:30pm ESE 8 11 - - - - - - - 16.3 1030.5 0.0
26/04:00pm SE 8 12 - - - - - - - 16.5 1030.5 0.0
26/03:30pm SE 8 11 - - - - - - - 16.6 1030.5 0.0
26/03:00pm SSE 8 12 - - - - - - - 17.1 1030.5 0.0
26/02:30pm SE 7 11 - - - - - - - 17.3 1030.5 0.0
26/02:00pm SE 7 11 - - - - - - - 17.3 1030.8 0.0
26/01:30pm SE 7 10 - - - - - - - 17.0 1031.2 0.0
26/01:00pm SSE 6 10 - - - - - - - 17.1 1031.5 0.0
26/12:30pm SE 6 10 - - - - - - - 17.1 1031.9 0.0
26/12:00pm SE 6 8 - - - - - - - 17.0 1032.1 0.0
26/11:30am SE 5 8 - - - - - - - 16.5 1032.3 0.0
26/11:00am SSW 5 6 - - - - - - - 16.0 1032.4 0.0
26/10:30am SSW 5 7 - - - - - - - 15.4 1032.3 0.6
26/10:00am S 3 5 - - - - - - - 14.6 1031.7 0.6
26/09:30am NNW 1 3 - - - - - - - 13.4 1031.4 0.6
26/09:00am NNW 4 4 - - - - - - - 9.0 1031.0 0.6
26/08:30am NNW 5 5 - - - - - - - 6.2 1030.6 0.6
26/08:00am WNW 4 5 - - - - - - - 5.9 1030.3 0.6
26/07:30am W 4 5 - - - - - - - 7.9 1030.2 0.6
26/07:00am W 5 6 - - - - - - - 9.8 1030.0 0.6
26/06:30am W 6 8 - - - - - - - 9.4 1029.6 0.6
26/06:00am W 6 7 - - - - - - - 9.3 1029.4 0.6
26/05:30am WNW 5 6 - - - - - - - 9.2 1029.3 0.6
26/05:00am W 5 6 - - - - - - - 9.5 1029.2 0.6
26/04:30am WNW 5 6 - - - - - - - 9.5 1028.9 0.6
26/04:00am WNW 5 6 - - - - - - - 9.3 1028.9 0.6
26/03:30am W 6 6 - - - - - - - 9.0 1028.9 0.6
26/03:00am W 4 4 - - - - - - - 7.3 1028.4 0.6
26/02:30am SW 5 5 - - - - - - - 9.6 1028.1 0.4
26/02:00am SSW 5 6 - - - - - - - 9.7 1028.2 0.4
26/01:30am SSW 4 5 - - - - - - - 9.7 1028.5 0.4
26/01:00am SW 4 4 - - - - - - - 10.9 1028.5 0.4
26/12:30am SW 4 5 - - - - - - - 11.1 1028.6 0.4
26/12:00am SW 4 5 - - - - - - - 12.4 1028.9 0.4
 
Date/Time
CST
Wind Sea
Height
m
Swell Vis
km
Cloud Weather Temp
°C
Press
MSL
hPa
Rain since
9am
mm
Dir  Spd
kts
Gust
kts
Height
m
Period
s
Dir
25/11:30pm SW 4 6 - - - - - - - 12.6 1029.0 0.4
25/11:00pm SSW 5 8 - - - - - - - 12.7 1028.9 0.4
25/10:30pm SW 5 8 - - - - - - Recent precip. 12.7 1028.8 0.4
25/10:00pm S 5 10 - - - - - - - 12.6 1028.7 0.4
25/09:30pm SSW 3 4 - - - - - - - 12.4 1028.5 0.0
25/09:00pm SSW 4 5 - - - - - - - 12.8 1028.1 0.0
25/08:30pm S 4 7 - - - - - - - 13.2 1027.7 0.0
25/08:00pm S 4 5 - - - - - - - 12.2 1027.4 0.0
25/07:30pm SSE 5 5 - - - - - - - 11.2 1026.9 0.0
25/07:00pm SSE 3 5 - - - - - - - 10.5 1026.4 0.0
25/06:30pm SE 4 4 - - - - - - - 11.6 1026.0 0.0
25/06:00pm SSE 4 5 - - - - - - - 13.4 1025.9 0.0
25/05:30pm SSE 5 6 - - - - - - - 15.0 1025.6 0.0
25/05:00pm SSE 5 6 - - - - - - - 16.1 1025.5 0.0
25/04:30pm SSE 5 7 - - - - - - - 16.5 1025.3 0.0
25/04:00pm S 6 8 - - - - - - - 17.2 1025.1 0.0
25/03:30pm S 6 8 - - - - - - - 18.1 1024.8 0.0

Other formats

Comma delimited format used in spreadsheet applications
http://www.bom.gov.au/fwo/IDS60701/IDS60701.94647.axf

JavaScript Object Notation format (JSON) in row-major order
http://www.bom.gov.au/fwo/IDS60701/IDS60701.94647.json

Data quality

Most of these data are generated automatically and are frequently updated. Quality checks on data are not normally performed. It is possible for incorrect values to appear. Refer to information at About Latest Weather Observations and please check the disclaimer before using these data.